Time;durP1;ratioP1;P1;durP2;ratioP2;P2;SDS_P1;SDS_P2;PMS_P1;PMS_P2;Temp;Humidity;BMP_temperature;BMP_pressure;BME280_temperature;BME280_humidity;BME280_pressure;Samples;Min_cycle;Max_cycle;Signal;HPM_P1;HPM_P2
2021/10/24 00:01:34;;;;;;;36.17;10.18;;;;;;;;;;4943333;28;20045;-63
2021/10/24 00:04:00;;;;;;;29.58;10.98;;;;;;;;;;4940214;28;20023;-63
2021/10/24 00:06:25;;;;;;;30.90;10.68;;;;;;;;;;4944957;28;20119;-63
2021/10/24 00:08:51;;;;;;;54.22;11.73;;;;;;;;;;4949486;28;20094;-63
2021/10/24 00:11:16;;;;;;;69.65;11.45;;;;;;;;;;4949758;28;20122;-63
2021/10/24 00:13:41;;;;;;;46.45;11.07;;;;;;;;;;4939332;28;20605;-63
2021/10/24 00:16:06;;;;;;;87.20;11.70;;;;;;;;;;4939843;28;20051;-63
2021/10/24 00:18:32;;;;;;;37.60;10.23;;;;;;;;;;4942142;29;20030;-63
2021/10/24 00:20:57;;;;;;;91.72;11.65;;;;;;;;;;4941315;28;20547;-63
2021/10/24 00:23:22;;;;;;;89.03;11.50;;;;;;;;;;4946181;29;20065;-63
2021/10/24 00:25:48;;;;;;;117.15;11.88;;;;;;;;;;4949220;28;20062;-63
2021/10/24 00:28:13;;;;;;;149.93;12.75;;;;;;;;;;4943717;28;20553;-63
2021/10/24 00:30:39;;;;;;;116.57;13.02;;;;;;;;;;4948910;28;20050;-63
2021/10/24 00:33:04;;;;;;;113.13;12.40;;;;;;;;;;4938602;28;20023;-63
2021/10/24 00:35:29;;;;;;;96.35;13.05;;;;;;;;;;4942686;28;20031;-63
2021/10/24 00:37:55;;;;;;;135.70;13.90;;;;;;;;;;4943055;28;20107;-64
2021/10/24 00:40:20;;;;;;;97.57;12.82;;;;;;;;;;4944227;28;20074;-64
2021/10/24 00:42:49;;;;;;;145.55;13.27;;;;;;;;;;4943874;28;20367;-63
2021/10/24 00:45:14;;;;;;;159.93;13.45;;;;;;;;;;4938407;28;20406;-64
2021/10/24 00:47:39;;;;;;;122.78;12.38;;;;;;;;;;4949156;29;20050;-64
2021/10/24 00:50:04;;;;;;;139.02;13.73;;;;;;;;;;4948393;28;20035;-63
2021/10/24 00:52:30;;;;;;;92.32;11.73;;;;;;;;;;4945998;28;20035;-64
2021/10/24 00:54:55;;;;;;;79.50;10.77;;;;;;;;;;4939428;28;20612;-64
2021/10/24 00:57:20;;;;;;;83.22;10.52;;;;;;;;;;4944684;28;20043;-64
2021/10/24 00:59:45;;;;;;;81.97;10.40;;;;;;;;;;4947440;29;20075;-64
2021/10/24 01:02:10;;;;;;;59.63;9.90;;;;;;;;;;4936856;28;20043;-64
2021/10/24 01:04:36;;;;;;;64.63;10.60;;;;;;;;;;4942819;29;20402;-63
2021/10/24 01:07:04;;;;;;;128.48;12.20;;;;;;;;;;4942308;28;20407;-63
2021/10/24 01:09:30;;;;;;;62.38;9.65;;;;;;;;;;4947045;28;20106;-64
2021/10/24 01:11:55;;;;;;;64.85;10.77;;;;;;;;;;4943531;28;20542;-63
2021/10/24 01:14:20;;;;;;;66.10;10.65;;;;;;;;;;4942721;28;20047;-64
2021/10/24 01:16:46;;;;;;;130.52;11.85;;;;;;;;;;4947976;28;20085;-64
2021/10/24 01:19:11;;;;;;;80.40;11.57;;;;;;;;;;4944452;28;20155;-64
2021/10/24 01:21:37;;;;;;;77.57;11.55;;;;;;;;;;4947963;28;20086;-64
2021/10/24 01:24:02;;;;;;;117.45;11.68;;;;;;;;;;4942522;28;20401;-64
2021/10/24 01:26:28;;;;;;;74.72;12.07;;;;;;;;;;4947872;28;20047;-64
2021/10/24 01:28:54;;;;;;;74.53;11.48;;;;;;;;;;4947357;28;20046;-64
2021/10/24 01:31:19;;;;;;;199.75;13.02;;;;;;;;;;4948101;28;20050;-64
2021/10/24 01:33:44;;;;;;;204.38;14.27;;;;;;;;;;4941006;28;20031;-64
2021/10/24 01:36:10;;;;;;;198.75;13.18;;;;;;;;;;4936458;29;20027;-63
2021/10/24 01:38:35;;;;;;;171.32;13.02;;;;;;;;;;4943007;29;20055;-64
2021/10/24 01:41:01;;;;;;;131.45;12.48;;;;;;;;;;4946644;28;20114;-63
2021/10/24 01:43:26;;;;;;;83.72;11.95;;;;;;;;;;4946704;28;20546;-64
2021/10/24 01:45:51;;;;;;;110.10;12.48;;;;;;;;;;4943687;28;20087;-63
2021/10/24 01:48:17;;;;;;;78.63;11.20;;;;;;;;;;4944953;29;20035;-63
2021/10/24 01:50:42;;;;;;;76.22;11.27;;;;;;;;;;4939092;28;20535;-64
2021/10/24 01:53:08;;;;;;;90.25;10.45;;;;;;;;;;4956349;28;20740;-64
2021/10/24 01:55:33;;;;;;;229.15;12.43;;;;;;;;;;4947398;28;20043;-63
2021/10/24 01:57:58;;;;;;;140.75;12.02;;;;;;;;;;4942678;28;20027;-64
2021/10/24 02:00:23;;;;;;;197.05;12.73;;;;;;;;;;4947912;28;20031;-64
2021/10/24 02:02:49;;;;;;;192.77;12.52;;;;;;;;;;4932675;28;20035;-65
2021/10/24 02:05:14;;;;;;;328.08;15.82;;;;;;;;;;4940764;28;20599;-63
2021/10/24 02:07:40;;;;;;;209.85;13.32;;;;;;;;;;4946749;29;20029;-64
2021/10/24 02:10:06;;;;;;;228.60;15.02;;;;;;;;;;4946836;28;20474;-64
2021/10/24 02:12:31;;;;;;;156.50;13.75;;;;;;;;;;4940556;28;20079;-64
2021/10/24 02:14:56;;;;;;;249.82;14.52;;;;;;;;;;4947201;28;20126;-64
2021/10/24 02:17:21;;;;;;;265.83;15.20;;;;;;;;;;4946765;28;20047;-64
2021/10/24 02:19:47;;;;;;;299.90;16.27;;;;;;;;;;4946912;28;20035;-64
2021/10/24 02:22:12;;;;;;;151.57;13.25;;;;;;;;;;4941333;28;20497;-64
2021/10/24 02:24:37;;;;;;;314.65;16.67;;;;;;;;;;4939319;29;20767;-63
2021/10/24 02:27:02;;;;;;;213.55;14.55;;;;;;;;;;4942485;28;20478;-62
2021/10/24 02:29:28;;;;;;;313.60;15.05;;;;;;;;;;4942346;28;20337;-63
2021/10/24 02:31:53;;;;;;;222.57;13.70;;;;;;;;;;4945148;28;20148;-64
2021/10/24 02:34:18;;;;;;;73.88;10.32;;;;;;;;;;4940468;28;20031;-62
2021/10/24 02:36:43;;;;;;;158.38;12.32;;;;;;;;;;4947130;28;20039;-62
2021/10/24 02:39:08;;;;;;;194.73;13.10;;;;;;;;;;4941448;28;20103;-62
2021/10/24 02:41:34;;;;;;;146.98;12.00;;;;;;;;;;4945950;28;20032;-62
2021/10/24 02:43:59;;;;;;;125.72;12.23;;;;;;;;;;4940755;28;20028;-62
2021/10/24 02:46:24;;;;;;;198.35;13.00;;;;;;;;;;4940768;28;20050;-62
2021/10/24 02:48:49;;;;;;;132.70;10.48;;;;;;;;;;4954956;28;20031;-62
2021/10/24 02:51:14;;;;;;;155.95;10.90;;;;;;;;;;4941260;28;20043;-64
2021/10/24 02:53:40;;;;;;;140.90;12.35;;;;;;;;;;4959149;28;20031;-62
2021/10/24 02:56:05;;;;;;;133.10;11.48;;;;;;;;;;4940142;28;20369;-62
2021/10/24 02:58:30;;;;;;;141.85;10.88;;;;;;;;;;4942748;28;20043;-65
2021/10/24 03:00:56;;;;;;;85.28;10.27;;;;;;;;;;4945118;28;20077;-64
2021/10/24 03:03:21;;;;;;;130.30;10.27;;;;;;;;;;4938574;28;20130;-64
2021/10/24 03:05:48;;;;;;;174.98;11.95;;;;;;;;;;4936951;28;20040;-63
2021/10/24 03:08:13;;;;;;;93.88;9.30;;;;;;;;;;4939815;28;20560;-63
2021/10/24 03:10:38;;;;;;;217.18;11.95;;;;;;;;;;4938564;28;20036;-62
2021/10/24 03:13:04;;;;;;;163.27;10.63;;;;;;;;;;4940217;29;20046;-63
2021/10/24 03:15:30;;;;;;;105.65;9.23;;;;;;;;;;4937911;28;20106;-62
2021/10/24 03:17:55;;;;;;;63.35;7.75;;;;;;;;;;4940784;29;20651;-62
2021/10/24 03:20:20;;;;;;;92.72;8.73;;;;;;;;;;4945483;28;20039;-62
2021/10/24 03:22:45;;;;;;;112.93;9.63;;;;;;;;;;4941736;28;20023;-62
2021/10/24 03:25:11;;;;;;;103.97;10.07;;;;;;;;;;4941329;28;20384;-62
2021/10/24 03:27:36;;;;;;;72.00;9.35;;;;;;;;;;4930447;28;20825;-62
2021/10/24 03:30:01;;;;;;;114.05;10.93;;;;;;;;;;4942051;28;20039;-62
2021/10/24 03:32:27;;;;;;;88.75;9.95;;;;;;;;;;4944596;28;20441;-63
2021/10/24 03:34:52;;;;;;;93.60;9.45;;;;;;;;;;4946852;28;20023;-62
2021/10/24 03:37:17;;;;;;;173.07;11.07;;;;;;;;;;4943409;28;20482;-62
2021/10/24 03:39:43;;;;;;;82.25;10.35;;;;;;;;;;4943183;28;20027;-63
2021/10/24 03:42:09;;;;;;;175.30;11.68;;;;;;;;;;4949980;28;20129;-62
2021/10/24 03:44:34;;;;;;;127.97;10.43;;;;;;;;;;4950650;28;20027;-62
2021/10/24 03:46:59;;;;;;;111.45;10.68;;;;;;;;;;4944539;28;20044;-63
2021/10/24 03:49:25;;;;;;;133.15;9.52;;;;;;;;;;4941192;29;20082;-63
2021/10/24 03:51:50;;;;;;;110.18;10.40;;;;;;;;;;4944068;28;20688;-62
2021/10/24 03:54:15;;;;;;;197.52;12.45;;;;;;;;;;4940731;29;20133;-62
2021/10/24 03:56:40;;;;;;;141.10;11.02;;;;;;;;;;4939356;28;20044;-62
2021/10/24 03:59:06;;;;;;;204.77;11.40;;;;;;;;;;4955687;28;20027;-62
2021/10/24 04:01:31;;;;;;;324.67;14.68;;;;;;;;;;4953264;28;20062;-62
2021/10/24 04:03:56;;;;;;;154.05;11.32;;;;;;;;;;4945689;28;20225;-64
2021/10/24 04:06:22;;;;;;;207.38;12.20;;;;;;;;;;4942714;28;20040;-62
2021/10/24 04:08:47;;;;;;;171.15;11.57;;;;;;;;;;4950031;28;20556;-62
2021/10/24 04:11:12;;;;;;;236.35;11.88;;;;;;;;;;4946184;28;20058;-62
2021/10/24 04:13:37;;;;;;;154.15;11.07;;;;;;;;;;4944831;28;20493;-62
2021/10/24 04:16:03;;;;;;;127.05;8.95;;;;;;;;;;4948696;28;20046;-62
2021/10/24 04:18:28;;;;;;;180.57;11.13;;;;;;;;;;4948874;28;20023;-62
2021/10/24 04:20:54;;;;;;;200.73;10.57;;;;;;;;;;4949240;28;20054;-62
2021/10/24 04:23:20;;;;;;;138.38;9.70;;;;;;;;;;4949979;28;20058;-62
2021/10/24 04:25:45;;;;;;;250.60;12.43;;;;;;;;;;4948547;28;20522;-62
2021/10/24 04:28:10;;;;;;;147.95;9.77;;;;;;;;;;4938789;29;20262;-62
2021/10/24 04:30:35;;;;;;;176.60;10.60;;;;;;;;;;4941580;28;20035;-62
2021/10/24 04:33:01;;;;;;;190.52;10.45;;;;;;;;;;4949127;28;20039;-62
2021/10/24 04:35:26;;;;;;;100.03;8.95;;;;;;;;;;4949313;28;20046;-62
2021/10/24 04:37:51;;;;;;;178.38;10.38;;;;;;;;;;4947752;29;20038;-63
2021/10/24 04:40:16;;;;;;;220.35;10.52;;;;;;;;;;4947576;28;20034;-62
2021/10/24 04:42:41;;;;;;;288.10;11.23;;;;;;;;;;4944528;28;20035;-62
2021/10/24 04:45:07;;;;;;;270.55;12.43;;;;;;;;;;4939701;28;20035;-62
2021/10/24 04:47:32;;;;;;;215.32;9.63;;;;;;;;;;4942400;28;20027;-62
2021/10/24 04:49:58;;;;;;;174.10;8.93;;;;;;;;;;4948938;28;20544;-62
2021/10/24 04:52:23;;;;;;;213.50;9.73;;;;;;;;;;4945133;28;20409;-62
2021/10/24 04:54:48;;;;;;;105.70;7.32;;;;;;;;;;4949071;28;20418;-62
2021/10/24 04:57:13;;;;;;;185.32;9.02;;;;;;;;;;4933323;28;20115;-62
2021/10/24 04:59:38;;;;;;;220.27;10.32;;;;;;;;;;4942615;28;20406;-62
2021/10/24 05:02:04;;;;;;;163.13;7.65;;;;;;;;;;4941650;28;20047;-62
2021/10/24 05:04:29;;;;;;;143.38;8.00;;;;;;;;;;4948363;29;20019;-62
2021/10/24 05:06:54;;;;;;;229.50;10.10;;;;;;;;;;4942370;28;20425;-62
2021/10/24 05:09:19;;;;;;;240.23;9.32;;;;;;;;;;4942768;29;20393;-62
2021/10/24 05:11:44;;;;;;;153.18;8.68;;;;;;;;;;4947647;28;20402;-62
2021/10/24 05:14:10;;;;;;;154.90;8.85;;;;;;;;;;4945706;28;20116;-62
2021/10/24 05:16:35;;;;;;;175.90;9.73;;;;;;;;;;4941254;28;20118;-62
2021/10/24 05:19:01;;;;;;;105.13;8.80;;;;;;;;;;4940671;28;20035;-62
2021/10/24 05:21:26;;;;;;;143.68;10.25;;;;;;;;;;4937254;28;20110;-62
2021/10/24 05:23:51;;;;;;;138.63;9.40;;;;;;;;;;4938498;29;20068;-62
2021/10/24 05:26:16;;;;;;;100.25;8.55;;;;;;;;;;4939451;28;20071;-61
2021/10/24 05:28:42;;;;;;;132.10;8.48;;;;;;;;;;4944302;28;20023;-63
2021/10/24 05:31:07;;;;;;;117.75;9.13;;;;;;;;;;4947986;28;20203;-62
2021/10/24 05:33:32;;;;;;;147.80;9.05;;;;;;;;;;4943218;28;20062;-62
2021/10/24 05:35:57;;;;;;;152.10;9.13;;;;;;;;;;4945998;28;20046;-62
2021/10/24 05:38:22;;;;;;;123.68;8.82;;;;;;;;;;4944124;28;20030;-61
2021/10/24 05:40:49;;;;;;;152.52;8.82;;;;;;;;;;4947441;28;20050;-62
2021/10/24 05:43:14;;;;;;;118.43;9.80;;;;;;;;;;4942669;28;20035;-62
2021/10/24 05:45:43;;;;;;;179.38;10.68;;;;;;;;;;4947432;28;20406;-62
2021/10/24 05:48:08;;;;;;;164.75;10.57;;;;;;;;;;4939833;29;20053;-62
2021/10/24 05:50:34;;;;;;;135.23;10.75;;;;;;;;;;4942007;28;20035;-62
2021/10/24 05:52:59;;;;;;;162.77;10.40;;;;;;;;;;4943176;28;20027;-61
2021/10/24 05:55:24;;;;;;;99.00;9.68;;;;;;;;;;4946787;28;20031;-62
2021/10/24 05:57:49;;;;;;;121.93;9.55;;;;;;;;;;4947534;28;20397;-62
2021/10/24 06:00:15;;;;;;;108.75;9.25;;;;;;;;;;4943846;28;20402;-62
2021/10/24 06:02:40;;;;;;;79.38;8.20;;;;;;;;;;4939750;28;20839;-61
2021/10/24 06:05:05;;;;;;;153.57;9.82;;;;;;;;;;4935714;28;20429;-62
2021/10/24 06:07:33;;;;;;;56.25;7.15;;;;;;;;;;4941865;29;20381;-62
2021/10/24 06:10:01;;;;;;;93.10;7.72;;;;;;;;;;4935260;28;20071;-62
2021/10/24 06:15:05;;;;;;;93.63;8.43;;;;;;;;;;4946401;29;20058;-62
2021/10/24 06:17:30;;;;;;;67.15;8.40;;;;;;;;;;4942559;28;20386;-62
2021/10/24 06:19:55;;;;;;;82.95;8.68;;;;;;;;;;4945337;29;20063;-62
2021/10/24 06:22:21;;;;;;;87.45;8.48;;;;;;;;;;4941639;28;20035;-62
2021/10/24 06:24:46;;;;;;;82.65;8.50;;;;;;;;;;4941905;29;20040;-62
2021/10/24 06:27:11;;;;;;;100.88;9.90;;;;;;;;;;4946150;28;20050;-62
2021/10/24 06:29:39;;;;;;;140.60;9.38;;;;;;;;;;4943300;28;20046;-62
2021/10/24 06:32:05;;;;;;;83.70;7.85;;;;;;;;;;4944648;28;20072;-62
2021/10/24 06:34:31;;;;;;;59.63;7.70;;;;;;;;;;4941218;28;20027;-62
2021/10/24 06:36:57;;;;;;;70.65;8.15;;;;;;;;;;4947373;28;20047;-63
2021/10/24 06:39:22;;;;;;;78.38;8.80;;;;;;;;;;4947574;28;20038;-62
2021/10/24 06:41:47;;;;;;;96.32;9.07;;;;;;;;;;4944679;28;20466;-62
2021/10/24 06:44:12;;;;;;;102.32;8.80;;;;;;;;;;4942997;28;20023;-62
2021/10/24 06:46:38;;;;;;;73.35;8.60;;;;;;;;;;4943575;28;20086;-62
2021/10/24 06:49:03;;;;;;;37.10;7.43;;;;;;;;;;4947705;28;20543;-62
2021/10/24 06:51:29;;;;;;;20.55;7.47;;;;;;;;;;4946680;28;20035;-62
2021/10/24 06:53:54;;;;;;;22.98;9.15;;;;;;;;;;4934626;29;20146;-62
2021/10/24 06:56:19;;;;;;;54.53;17.10;;;;;;;;;;4943507;28;20117;-62
2021/10/24 06:58:44;;;;;;;50.38;15.20;;;;;;;;;;4939859;28;20128;-62
2021/10/24 07:01:09;;;;;;;84.40;30.73;;;;;;;;;;4941249;28;20042;-62
2021/10/24 07:03:35;;;;;;;40.97;15.02;;;;;;;;;;4940475;29;20015;-62
2021/10/24 07:06:00;;;;;;;40.30;17.40;;;;;;;;;;4949152;28;20058;-63
2021/10/24 07:08:25;;;;;;;43.85;11.93;;;;;;;;;;4948534;28;20054;-62
2021/10/24 07:10:50;;;;;;;18.10;5.07;;;;;;;;;;4944740;28;20078;-62
2021/10/24 07:13:16;;;;;;;23.90;5.53;;;;;;;;;;4950859;28;20047;-62
2021/10/24 07:15:41;;;;;;;16.83;7.35;;;;;;;;;;4949904;28;20096;-63
2021/10/24 07:18:06;;;;;;;20.48;7.05;;;;;;;;;;4954538;28;20065;-62
2021/10/24 07:20:31;;;;;;;21.80;13.32;;;;;;;;;;4950335;28;20146;-62
2021/10/24 07:22:57;;;;;;;38.50;9.63;;;;;;;;;;4944151;28;20043;-62
2021/10/24 07:25:22;;;;;;;22.33;8.00;;;;;;;;;;4945220;28;20070;-63
2021/10/24 07:27:48;;;;;;;20.17;8.75;;;;;;;;;;4941450;28;20035;-63
2021/10/24 07:30:13;;;;;;;51.67;9.70;;;;;;;;;;4953959;28;20578;-63
2021/10/24 07:32:38;;;;;;;94.43;14.80;;;;;;;;;;4942737;28;20050;-62
2021/10/24 07:35:04;;;;;;;41.75;13.00;;;;;;;;;;4950131;28;20035;-63
2021/10/24 07:37:29;;;;;;;48.08;9.82;;;;;;;;;;4940176;28;20156;-63
2021/10/24 07:39:54;;;;;;;61.03;12.82;;;;;;;;;;4941364;28;20463;-63
2021/10/24 07:42:20;;;;;;;106.75;13.68;;;;;;;;;;4946831;28;20077;-63
2021/10/24 07:44:45;;;;;;;54.67;12.52;;;;;;;;;;4944637;28;20133;-63
2021/10/24 07:47:10;;;;;;;134.82;17.02;;;;;;;;;;4950108;28;20047;-63
2021/10/24 07:49:35;;;;;;;147.65;15.25;;;;;;;;;;4949189;28;20039;-63
2021/10/24 07:52:01;;;;;;;85.88;14.38;;;;;;;;;;4945020;28;20042;-63
2021/10/24 07:54:26;;;;;;;25.73;12.73;;;;;;;;;;4956526;28;20122;-63
2021/10/24 07:56:52;;;;;;;55.38;15.57;;;;;;;;;;4936268;28;20054;-63
2021/10/24 07:59:17;;;;;;;32.75;12.32;;;;;;;;;;4943796;29;20027;-63
2021/10/24 08:01:42;;;;;;;52.28;25.42;;;;;;;;;;4946683;28;20493;-64
2021/10/24 08:04:07;;;;;;;40.28;19.25;;;;;;;;;;4943501;28;20027;-63
2021/10/24 08:06:33;;;;;;;31.80;11.18;;;;;;;;;;4949499;28;20474;-63
2021/10/24 08:09:05;;;;;;;33.88;11.20;;;;;;;;;;4942115;28;20037;-63
2021/10/24 08:11:30;;;;;;;69.13;14.82;;;;;;;;;;4945546;28;20043;-63
2021/10/24 08:13:55;;;;;;;92.15;24.98;;;;;;;;;;4945738;28;20631;-63
2021/10/24 08:16:21;;;;;;;43.72;25.10;;;;;;;;;;4941830;28;20050;-63
2021/10/24 08:18:46;;;;;;;55.25;23.00;;;;;;;;;;4944725;29;20039;-63
2021/10/24 08:21:11;;;;;;;27.40;10.00;;;;;;;;;;4951961;28;20052;-64
2021/10/24 08:23:36;;;;;;;37.00;12.73;;;;;;;;;;4941503;29;20086;-64
2021/10/24 08:26:02;;;;;;;86.78;38.35;;;;;;;;;;4937363;28;20088;-64
2021/10/24 08:28:27;;;;;;;41.88;21.58;;;;;;;;;;4943996;29;20136;-63
2021/10/24 08:30:52;;;;;;;30.50;13.80;;;;;;;;;;4946279;28;20047;-63
2021/10/24 08:33:18;;;;;;;29.30;16.83;;;;;;;;;;4942612;28;20373;-63
2021/10/24 08:35:43;;;;;;;21.45;14.60;;;;;;;;;;4947106;28;20070;-63
2021/10/24 08:38:08;;;;;;;18.00;11.23;;;;;;;;;;4945251;29;20225;-63
2021/10/24 08:40:33;;;;;;;14.05;9.68;;;;;;;;;;4946926;28;20039;-63
2021/10/24 08:43:03;;;;;;;9.35;7.00;;;;;;;;;;4944264;28;20478;-63
2021/10/24 08:45:28;;;;;;;16.77;11.50;;;;;;;;;;4943429;28;20035;-64
2021/10/24 08:47:54;;;;;;;26.52;18.40;;;;;;;;;;4948651;28;20042;-64
2021/10/24 08:50:20;;;;;;;18.50;13.10;;;;;;;;;;4946873;28;20081;-64
2021/10/24 08:52:45;;;;;;;10.90;8.15;;;;;;;;;;4949206;28;20129;-63
2021/10/24 08:55:11;;;;;;;12.30;9.23;;;;;;;;;;4945881;28;20434;-63
2021/10/24 08:57:36;;;;;;;17.35;10.27;;;;;;;;;;4955587;28;20027;-64
2021/10/24 09:00:02;;;;;;;39.65;24.25;;;;;;;;;;4947452;28;20049;-63
2021/10/24 09:02:46;;;;;;;14.00;9.07;;;;;;;;;;4944281;29;20056;-63
2021/10/24 09:05:25;;;;;;;10.27;7.45;;;;;;;;;;4939810;28;20533;-63
2021/10/24 09:07:53;;;;;;;13.60;9.23;;;;;;;;;;4948923;28;20031;-63
2021/10/24 09:10:37;;;;;;;12.35;7.75;;;;;;;;;;4940520;28;20023;-64
2021/10/24 09:13:03;;;;;;;12.23;8.18;;;;;;;;;;4946273;28;20032;-65
2021/10/24 09:15:28;;;;;;;12.00;8.27;;;;;;;;;;4942763;28;20099;-65
2021/10/24 09:18:06;;;;;;;10.38;7.28;;;;;;;;;;4945066;28;20023;-64
2021/10/24 09:20:31;;;;;;;13.57;10.38;;;;;;;;;;4946548;28;20054;-65
2021/10/24 09:23:02;;;;;;;64.57;29.52;;;;;;;;;;4948697;28;20374;-64
2021/10/24 09:25:28;;;;;;;15.02;8.50;;;;;;;;;;4943565;29;20461;-66
2021/10/24 09:27:54;;;;;;;9.82;7.40;;;;;;;;;;4944868;28;20039;-64
2021/10/24 09:30:21;;;;;;;9.65;7.90;;;;;;;;;;4946701;28;20504;-64
2021/10/24 09:33:05;;;;;;;10.15;6.85;;;;;;;;;;4946732;28;20508;-65
2021/10/24 09:35:35;;;;;;;10.55;7.70;;;;;;;;;;4940517;28;20065;-64
2021/10/24 09:38:00;;;;;;;9.43;7.10;;;;;;;;;;4947479;28;20030;-65
2021/10/24 09:40:27;;;;;;;10.52;7.95;;;;;;;;;;4948302;28;20039;-65
2021/10/24 09:43:08;;;;;;;9.93;7.68;;;;;;;;;;4942587;28;20154;-65
2021/10/24 09:45:34;;;;;;;13.73;8.95;;;;;;;;;;4941712;28;20529;-64
2021/10/24 09:48:06;;;;;;;11.55;8.25;;;;;;;;;;4949451;28;20579;-64
2021/10/24 09:50:32;;;;;;;10.23;7.60;;;;;;;;;;4947263;28;20043;-64
2021/10/24 09:53:12;;;;;;;9.65;7.28;;;;;;;;;;4953808;28;20035;-64
2021/10/24 09:55:37;;;;;;;12.95;8.85;;;;;;;;;;4937347;28;20145;-64
2021/10/24 09:58:03;;;;;;;13.95;7.90;;;;;;;;;;4946981;28;20121;-64
2021/10/24 10:00:28;;;;;;;10.88;7.85;;;;;;;;;;4940692;28;20164;-64
2021/10/24 10:02:54;;;;;;;14.25;7.30;;;;;;;;;;4946697;29;20047;-64
2021/10/24 10:05:19;;;;;;;13.23;8.93;;;;;;;;;;4941069;28;20458;-64
2021/10/24 10:07:44;;;;;;;14.48;9.60;;;;;;;;;;4945916;28;20457;-65
2021/10/24 10:10:09;;;;;;;12.35;8.02;;;;;;;;;;4945226;28;20496;-63
2021/10/24 10:12:35;;;;;;;11.35;7.18;;;;;;;;;;4946022;28;20054;-64
2021/10/24 10:15:02;;;;;;;10.00;6.95;;;;;;;;;;4937381;28;20233;-64
2021/10/24 10:17:27;;;;;;;9.68;7.30;;;;;;;;;;4941740;29;20477;-64
2021/10/24 10:19:52;;;;;;;14.13;8.15;;;;;;;;;;4939175;29;20033;-64
2021/10/24 10:22:21;;;;;;;9.38;6.72;;;;;;;;;;4939631;29;20165;-64
2021/10/24 10:24:46;;;;;;;12.77;7.30;;;;;;;;;;4958637;28;20121;-63
2021/10/24 10:27:30;;;;;;;11.75;7.43;;;;;;;;;;4943390;28;20123;-63
2021/10/24 10:29:56;;;;;;;11.75;6.78;;;;;;;;;;4942933;29;20032;-63
2021/10/24 10:32:23;;;;;;;10.77;7.60;;;;;;;;;;4941404;28;20115;-63
2021/10/24 10:34:57;;;;;;;11.05;7.30;;;;;;;;;;4955039;28;20027;-64
2021/10/24 10:37:42;;;;;;;10.50;7.45;;;;;;;;;;4941513;28;20043;-63
2021/10/24 10:40:14;;;;;;;11.00;7.30;;;;;;;;;;4942061;28;20023;-63
2021/10/24 10:42:43;;;;;;;10.13;6.78;;;;;;;;;;4932745;28;20055;-64
2021/10/24 10:45:14;;;;;;;10.52;7.72;;;;;;;;;;4942257;28;20042;-66
2021/10/24 10:47:49;;;;;;;10.70;6.88;;;;;;;;;;4950392;29;20464;-65
2021/10/24 10:50:41;;;;;;;11.10;5.63;;;;;;;;;;4949638;28;20122;-63
2021/10/24 10:53:07;;;;;;;10.15;5.40;;;;;;;;;;4952207;28;20059;-63
2021/10/24 10:55:51;;;;;;;9.18;5.43;;;;;;;;;;4950782;28;20039;-63
2021/10/24 10:58:36;;;;;;;10.75;5.70;;;;;;;;;;4951321;29;20114;-63
2021/10/24 11:01:02;;;;;;;10.50;7.15;;;;;;;;;;4946554;28;20060;-64
2021/10/24 11:03:46;;;;;;;11.57;6.90;;;;;;;;;;4938432;28;20019;-64
2021/10/24 11:06:11;;;;;;;12.00;6.03;;;;;;;;;;4946342;28;20047;-64
2021/10/24 11:08:53;;;;;;;8.75;4.57;;;;;;;;;;4953379;28;20543;-64
2021/10/24 11:11:39;;;;;;;12.55;4.65;;;;;;;;;;4946565;28;20038;-63
2021/10/24 11:14:11;;;;;;;8.40;5.10;;;;;;;;;;4963428;28;20083;-63
2021/10/24 11:16:39;;;;;;;12.30;4.57;;;;;;;;;;4950135;28;20063;-63
2021/10/24 11:19:24;;;;;;;11.20;6.68;;;;;;;;;;4950764;28;20023;-64
2021/10/24 11:21:49;;;;;;;10.98;5.32;;;;;;;;;;4956988;28;20043;-64
2021/10/24 11:24:14;;;;;;;10.20;4.95;;;;;;;;;;4949731;29;20085;-64
2021/10/24 11:26:39;;;;;;;10.50;4.45;;;;;;;;;;4942616;28;20043;-63
2021/10/24 11:29:05;;;;;;;9.32;4.47;;;;;;;;;;4948364;28;20042;-65
2021/10/24 11:31:30;;;;;;;9.32;4.28;;;;;;;;;;4943752;28;20047;-64
2021/10/24 11:33:56;;;;;;;11.52;4.60;;;;;;;;;;4950219;28;20027;-63
2021/10/24 11:36:21;;;;;;;9.60;4.53;;;;;;;;;;4963321;28;20035;-66
2021/10/24 11:38:46;;;;;;;11.73;4.63;;;;;;;;;;4950582;28;20023;-63
2021/10/24 11:41:18;;;;;;;12.48;5.05;;;;;;;;;;4943941;28;20042;-64
2021/10/24 11:43:43;;;;;;;8.88;4.50;;;;;;;;;;4934300;29;20324;-66
2021/10/24 11:46:10;;;;;;;8.07;4.05;;;;;;;;;;4942921;28;20492;-63
2021/10/24 11:48:36;;;;;;;9.90;4.65;;;;;;;;;;4949667;28;20031;-64
2021/10/24 11:51:01;;;;;;;13.02;5.32;;;;;;;;;;4945453;28;20040;-64
2021/10/24 11:53:27;;;;;;;10.63;5.15;;;;;;;;;;4943231;29;20020;-63
2021/10/24 11:55:53;;;;;;;8.77;4.10;;;;;;;;;;4941533;28;20201;-63
2021/10/24 11:58:33;;;;;;;9.38;4.30;;;;;;;;;;4945517;28;20107;-65
2021/10/24 12:01:09;;;;;;;12.82;4.32;;;;;;;;;;4939294;28;20291;-66
2021/10/24 12:03:35;;;;;;;9.95;4.32;;;;;;;;;;4942124;29;20167;-65
2021/10/24 12:06:00;;;;;;;9.35;4.60;;;;;;;;;;4946843;28;20043;-66
2021/10/24 12:08:38;;;;;;;6.50;4.55;;;;;;;;;;4942382;28;20030;-65
2021/10/24 12:11:04;;;;;;;9.15;4.50;;;;;;;;;;4947307;28;20047;-63
2021/10/24 12:13:29;;;;;;;11.18;4.18;;;;;;;;;;4955566;28;20405;-63
2021/10/24 12:15:54;;;;;;;10.40;4.13;;;;;;;;;;4949056;28;20054;-63
2021/10/24 12:18:20;;;;;;;7.63;4.05;;;;;;;;;;4943625;28;20062;-64
2021/10/24 12:20:55;;;;;;;8.27;4.07;;;;;;;;;;4946275;28;20379;-65
2021/10/24 12:23:20;;;;;;;8.25;4.55;;;;;;;;;;4943427;28;20031;-64
2021/10/24 12:25:47;;;;;;;8.25;5.03;;;;;;;;;;4949241;28;20043;-64
2021/10/24 12:28:23;;;;;;;9.10;4.20;;;;;;;;;;4949266;28;20062;-64
2021/10/24 12:30:49;;;;;;;10.82;4.25;;;;;;;;;;4942006;28;20043;-64
2021/10/24 12:33:25;;;;;;;9.02;3.97;;;;;;;;;;4937105;28;20529;-64
2021/10/24 12:35:50;;;;;;;8.45;4.00;;;;;;;;;;4941287;29;20090;-65
2021/10/24 12:38:16;;;;;;;8.77;4.05;;;;;;;;;;4932732;29;20020;-64
2021/10/24 12:40:49;;;;;;;9.88;4.28;;;;;;;;;;4931619;29;20144;-64
2021/10/24 12:43:14;;;;;;;9.00;4.43;;;;;;;;;;4943342;29;20039;-64
2021/10/24 12:45:45;;;;;;;9.50;4.40;;;;;;;;;;4948916;28;20050;-64
2021/10/24 12:48:11;;;;;;;8.60;4.65;;;;;;;;;;4943421;29;20019;-64
2021/10/24 12:50:36;;;;;;;10.57;4.50;;;;;;;;;;4944289;28;20046;-64
2021/10/24 12:53:02;;;;;;;12.23;4.70;;;;;;;;;;4949556;28;20069;-65
2021/10/24 12:55:28;;;;;;;9.32;4.40;;;;;;;;;;4945848;28;20039;-65
2021/10/24 12:57:53;;;;;;;9.82;5.75;;;;;;;;;;4951056;28;20055;-63
2021/10/24 13:00:18;;;;;;;8.95;4.90;;;;;;;;;;4948515;28;20035;-65
2021/10/24 13:02:43;;;;;;;7.70;4.72;;;;;;;;;;4950138;28;20454;-64
2021/10/24 13:05:10;;;;;;;10.88;4.40;;;;;;;;;;4948043;28;20043;-64
2021/10/24 13:07:35;;;;;;;8.23;4.70;;;;;;;;;;4948826;28;20031;-65
2021/10/24 13:10:00;;;;;;;8.82;4.68;;;;;;;;;;4938050;28;20107;-65
2021/10/24 13:12:25;;;;;;;13.13;4.85;;;;;;;;;;4939477;28;20415;-65
2021/10/24 13:14:51;;;;;;;10.05;5.47;;;;;;;;;;4944349;28;20051;-63
2021/10/24 13:17:16;;;;;;;8.35;4.53;;;;;;;;;;4937924;28;20042;-63
2021/10/24 13:19:41;;;;;;;9.10;4.60;;;;;;;;;;4947831;28;20023;-65
2021/10/24 13:24:50;;;;;;;7.50;4.57;;;;;;;;;;4945996;29;20037;-65
2021/10/24 13:27:16;;;;;;;8.98;4.78;;;;;;;;;;4944428;28;20408;-64
2021/10/24 13:29:42;;;;;;;11.75;4.78;;;;;;;;;;4941440;29;20027;-64
2021/10/24 13:32:07;;;;;;;11.90;4.70;;;;;;;;;;4944822;28;20043;-64
2021/10/24 13:34:33;;;;;;;10.93;4.75;;;;;;;;;;4942073;28;20083;-64
2021/10/24 13:36:58;;;;;;;9.63;4.68;;;;;;;;;;4942260;28;20035;-65
2021/10/24 13:39:24;;;;;;;9.20;4.88;;;;;;;;;;4945767;28;20023;-65
2021/10/24 13:41:50;;;;;;;11.32;4.00;;;;;;;;;;4943591;28;20035;-63
2021/10/24 13:44:15;;;;;;;8.65;4.07;;;;;;;;;;4944864;28;20051;-65
2021/10/24 13:46:40;;;;;;;8.73;4.30;;;;;;;;;;4941669;28;20179;-65
2021/10/24 13:49:06;;;;;;;7.03;4.07;;;;;;;;;;4943863;28;20110;-63
2021/10/24 13:51:31;;;;;;;9.25;3.70;;;;;;;;;;4944588;28;20167;-63
2021/10/24 13:53:56;;;;;;;12.50;4.22;;;;;;;;;;4941958;28;20027;-63
2021/10/24 13:56:22;;;;;;;7.63;3.72;;;;;;;;;;4947766;28;20497;-63
2021/10/24 13:58:47;;;;;;;8.55;4.07;;;;;;;;;;4948451;28;20023;-63
2021/10/24 14:01:12;;;;;;;10.35;4.05;;;;;;;;;;4944270;28;20046;-63
2021/10/24 14:03:37;;;;;;;9.15;4.28;;;;;;;;;;4943140;28;20027;-63
2021/10/24 14:06:03;;;;;;;6.57;3.72;;;;;;;;;;4946913;28;20366;-63
2021/10/24 14:08:29;;;;;;;7.80;3.92;;;;;;;;;;4945527;28;20102;-63
2021/10/24 14:10:54;;;;;;;6.47;3.50;;;;;;;;;;4950492;28;20042;-63
2021/10/24 14:13:20;;;;;;;9.02;4.20;;;;;;;;;;4944832;29;20046;-63
2021/10/24 14:15:45;;;;;;;5.43;3.53;;;;;;;;;;4946777;28;20429;-63
2021/10/24 14:18:10;;;;;;;7.20;2.92;;;;;;;;;;4941285;28;20054;-63
2021/10/24 14:20:35;;;;;;;6.93;3.17;;;;;;;;;;4956066;28;20235;-63
2021/10/24 14:23:01;;;;;;;5.95;3.20;;;;;;;;;;4946946;28;20038;-62
2021/10/24 14:25:26;;;;;;;10.13;3.45;;;;;;;;;;4947068;28;20043;-64